createdAt,value
2023-05-19T00:00:09.932Z,3.40
2023-05-19T00:02:39.794Z,3.03
2023-05-19T00:05:10.504Z,1.60
2023-05-19T00:07:40.677Z,1.95
2023-05-19T00:10:10.058Z,2.08
2023-05-19T00:12:38.956Z,2.72
2023-05-19T00:15:08.656Z,3.80
2023-05-19T00:17:38.449Z,3.20
2023-05-19T00:20:08.478Z,3.33
2023-05-19T00:22:37.076Z,2.85
2023-05-19T00:25:07.576Z,3.42
2023-05-19T00:27:35.583Z,3.30
2023-05-19T00:30:03.553Z,2.50
2023-05-19T00:32:31.587Z,4.72
2023-05-19T00:34:59.593Z,1.60
2023-05-19T00:37:27.870Z,3.63
2023-05-19T00:39:55.934Z,3.67
2023-05-19T00:42:25.728Z,1.90
2023-05-19T00:44:54.311Z,2.80
2023-05-19T00:47:23.281Z,1.75
2023-05-19T00:49:51.287Z,2.55
2023-05-19T00:52:19.407Z,1.98
2023-05-19T00:54:47.803Z,2.72
2023-05-19T00:57:16.216Z,2.70
2023-05-19T00:59:45.686Z,3.22
2023-05-19T01:02:13.728Z,3.15
2023-05-19T01:04:43.946Z,2.95
2023-05-19T01:07:12.685Z,2.03
2023-05-19T01:09:41.657Z,2.17
2023-05-19T01:12:10.335Z,2.65
2023-05-19T01:14:38.462Z,2.88
2023-05-19T01:17:16.005Z,2.28
2023-05-19T01:19:57.510Z,2.83
2023-05-19T01:22:42.943Z,4.60
2023-05-19T01:25:42.616Z,3.20
2023-05-19T01:28:40.591Z,1.50
2023-05-19T01:31:12.075Z,3.47
2023-05-19T01:33:42.412Z,1.67
2023-05-19T01:36:13.619Z,3.75
2023-05-19T01:38:41.839Z,1.90
2023-05-19T01:41:10.911Z,3.25
2023-05-19T01:43:39.778Z,3.90
2023-05-19T01:48:38.323Z,1.75
2023-05-19T01:51:06.878Z,2.42
2023-05-19T01:53:34.942Z,3.05
2023-05-19T01:56:03.405Z,1.52
2023-05-19T01:58:39.392Z,4.28
2023-05-19T02:01:16.956Z,2.65
2023-05-19T02:04:01.947Z,2.22
2023-05-19T02:06:41.651Z,1.80
2023-05-19T02:09:16.842Z,3.42
2023-05-19T02:11:53.296Z,3.15
2023-05-19T02:14:25.661Z,2.03
2023-05-19T02:16:55.000Z,2.70
2023-05-19T02:19:26.251Z,3.78
2023-05-19T02:21:54.396Z,2.35
2023-05-19T02:24:23.088Z,1.73
2023-05-19T02:26:52.014Z,1.38
2023-05-19T02:29:20.559Z,2.67
2023-05-19T02:31:49.206Z,2.25
2023-05-19T02:34:17.278Z,2.40
2023-05-19T02:36:49.896Z,3.22
2023-05-19T02:39:17.985Z,1.33
2023-05-19T02:41:45.945Z,2.15
2023-05-19T02:44:14.095Z,1.85
2023-05-19T02:46:42.196Z,1.65
2023-05-19T02:49:11.542Z,3.38
2023-05-19T02:51:39.541Z,1.80
2023-05-19T02:54:08.929Z,2.65
2023-05-19T02:56:36.887Z,2.08
2023-05-19T02:59:04.875Z,2.17
2023-05-19T03:01:33.905Z,1.98
2023-05-19T03:04:02.303Z,1.45
2023-05-19T03:06:32.508Z,2.30
2023-05-19T03:09:00.515Z,3.80
2023-05-19T03:11:31.015Z,2.53
2023-05-19T03:13:59.829Z,2.55
2023-05-19T03:18:56.569Z,1.23
2023-05-19T03:21:24.831Z,3.47
2023-05-19T03:23:52.796Z,2.42
2023-05-19T03:26:20.825Z,1.75
2023-05-19T03:28:50.148Z,1.73
2023-05-19T03:31:18.182Z,1.67
2023-05-19T03:33:46.231Z,2.00
2023-05-19T03:36:14.212Z,1.25
2023-05-19T03:38:42.251Z,1.77
2023-05-19T03:41:10.267Z,1.67
2023-05-19T03:43:38.244Z,2.38
2023-05-19T03:46:07.794Z,1.88
2023-05-19T03:48:35.875Z,2.17
2023-05-19T03:51:04.471Z,2.15
2023-05-19T03:53:32.424Z,1.73
2023-05-19T03:56:00.721Z,2.85
2023-05-19T03:58:30.091Z,3.08
2023-05-19T04:00:58.081Z,2.38
2023-05-19T04:03:28.665Z,2.22
2023-05-19T04:05:56.801Z,2.42
2023-05-19T04:08:24.825Z,1.80
2023-05-19T04:10:52.817Z,2.65
2023-05-19T04:13:20.794Z,3.35
2023-05-19T04:15:48.996Z,2.55
2023-05-19T04:18:17.016Z,3.08
2023-05-19T04:20:46.390Z,1.30
2023-05-19T04:23:16.998Z,2.70
2023-05-19T04:25:45.010Z,2.97
2023-05-19T04:28:13.032Z,3.65
2023-05-19T04:30:42.650Z,4.72
2023-05-19T04:33:10.904Z,3.17
2023-05-19T04:35:39.802Z,2.28
2023-05-19T04:40:38.020Z,2.15
2023-05-19T04:43:07.409Z,1.58
2023-05-19T04:45:37.729Z,3.08
2023-05-19T04:48:06.236Z,2.58
2023-05-19T04:50:34.479Z,2.47
2023-05-19T04:53:02.619Z,2.65
2023-05-19T04:55:33.010Z,2.58
2023-05-19T04:58:07.807Z,2.63
2023-05-19T05:00:36.491Z,2.83
2023-05-19T05:05:34.232Z,2.83
2023-05-19T05:08:03.295Z,3.00
2023-05-19T05:10:33.050Z,3.10
2023-05-19T05:13:02.270Z,2.28
2023-05-19T05:15:30.981Z,2.83
2023-05-19T05:20:28.014Z,4.03
2023-05-19T05:22:57.772Z,2.85
2023-05-19T05:25:26.315Z,2.30
2023-05-19T05:27:55.896Z,2.05
2023-05-19T05:30:23.854Z,4.10
2023-05-19T05:32:52.094Z,3.50
2023-05-19T05:35:22.317Z,3.13
2023-05-19T05:37:50.316Z,2.90
2023-05-19T05:40:18.700Z,4.25
2023-05-19T05:42:46.810Z,2.58
2023-05-19T05:45:16.201Z,2.60
2023-05-19T05:47:44.727Z,3.78
2023-05-19T05:50:14.686Z,6.47
2023-05-19T05:52:46.892Z,2.85
2023-05-19T05:55:17.519Z,1.98
2023-05-19T05:57:45.584Z,2.72
2023-05-19T06:00:16.513Z,1.90
2023-05-19T06:02:47.846Z,4.30
2023-05-19T06:05:16.660Z,1.85
2023-05-19T06:07:45.069Z,3.53
2023-05-19T06:10:13.157Z,1.55
2023-05-19T06:12:41.352Z,5.18
2023-05-19T06:15:09.897Z,3.25
2023-05-19T06:17:39.499Z,1.88
2023-05-19T06:20:10.311Z,1.98
2023-05-19T06:22:38.462Z,2.70
2023-05-19T06:25:09.013Z,2.55
2023-05-19T06:27:37.354Z,2.00
2023-05-19T06:30:06.480Z,3.67
2023-05-19T06:32:34.579Z,2.05
2023-05-19T06:35:04.447Z,2.13
2023-05-19T06:37:32.797Z,4.10
2023-05-19T06:40:00.964Z,3.83
2023-05-19T06:42:31.742Z,1.90
2023-05-19T06:45:01.199Z,1.25
2023-05-19T06:47:29.358Z,2.55
2023-05-19T06:49:58.037Z,1.77
2023-05-19T06:52:27.388Z,1.38
2023-05-19T06:54:55.406Z,3.35
2023-05-19T06:57:23.501Z,2.00
2023-05-19T06:59:51.508Z,2.28
2023-05-19T07:02:19.550Z,3.28
2023-05-19T07:04:47.583Z,2.58
2023-05-19T07:07:15.751Z,2.30
2023-05-19T07:09:45.188Z,2.85
2023-05-19T07:12:13.220Z,2.60
2023-05-19T07:14:41.245Z,3.85
2023-05-19T07:17:09.462Z,2.13
2023-05-19T07:19:37.458Z,3.65
2023-05-19T07:22:05.984Z,3.45
2023-05-19T07:27:04.520Z,2.58
2023-05-19T07:29:32.540Z,2.20
2023-05-19T07:32:03.409Z,3.08
2023-05-19T07:34:31.491Z,2.25
2023-05-19T07:36:59.477Z,2.58
2023-05-19T07:39:29.790Z,2.42
2023-05-19T07:41:59.543Z,4.00
2023-05-19T07:44:31.352Z,3.17
2023-05-19T07:46:59.334Z,2.45
2023-05-19T07:49:27.415Z,3.30
2023-05-19T07:51:55.448Z,3.33
2023-05-19T07:54:23.478Z,3.92
2023-05-19T07:56:51.824Z,2.65
2023-05-19T07:59:19.864Z,1.52
2023-05-19T08:01:52.330Z,2.30
2023-05-19T08:04:20.472Z,2.50
2023-05-19T08:06:48.587Z,2.08
2023-05-19T08:09:20.231Z,3.10
2023-05-19T08:11:48.380Z,3.65
2023-05-19T08:14:16.500Z,2.38
2023-05-19T08:16:46.185Z,3.83
2023-05-19T08:19:17.632Z,4.05
2023-05-19T08:21:45.667Z,6.40
2023-05-19T08:24:13.740Z,3.97
2023-05-19T08:26:41.736Z,5.35
2023-05-19T08:29:12.859Z,3.33
2023-05-19T08:31:41.034Z,3.80
2023-05-19T08:34:09.534Z,3.95
2023-05-19T08:36:39.141Z,4.03
2023-05-19T08:39:07.122Z,2.85
2023-05-19T08:41:37.579Z,3.33
2023-05-19T08:44:06.080Z,3.25
2023-05-19T08:46:34.261Z,4.47
2023-05-19T08:49:10.773Z,4.50
2023-05-19T08:51:45.815Z,3.65
2023-05-19T08:54:20.873Z,4.10
2023-05-19T08:56:49.620Z,4.85
2023-05-19T08:59:19.442Z,3.05
2023-05-19T09:01:48.429Z,3.53
2023-05-19T09:04:18.099Z,3.67
2023-05-19T09:06:53.076Z,4.05
2023-05-19T09:09:21.187Z,2.40
2023-05-19T09:11:49.397Z,4.55
2023-05-19T09:14:17.395Z,3.88
2023-05-19T09:16:49.976Z,4.13
2023-05-19T09:19:18.203Z,3.03
2023-05-19T09:21:46.529Z,3.70
2023-05-19T09:24:16.503Z,4.50
2023-05-19T09:26:47.634Z,3.88
2023-05-19T09:29:17.741Z,3.88
2023-05-19T09:31:50.765Z,4.63
2023-05-19T09:34:20.724Z,3.47
2023-05-19T09:36:50.746Z,5.07
2023-05-19T09:39:21.754Z,2.75
2023-05-19T09:41:53.675Z,3.47
2023-05-19T09:44:29.200Z,3.03
2023-05-19T09:46:58.300Z,2.88
2023-05-19T09:49:31.882Z,3.17
2023-05-19T09:52:01.863Z,2.47
2023-05-19T09:54:32.597Z,3.95
2023-05-19T09:57:01.896Z,5.00
2023-05-19T09:59:33.371Z,2.95
2023-05-19T10:02:05.144Z,2.88
2023-05-19T10:04:33.234Z,3.10
2023-05-19T10:07:05.778Z,2.13
2023-05-19T10:09:37.572Z,3.85
2023-05-19T10:12:06.716Z,3.00
2023-05-19T10:14:34.692Z,2.88
2023-05-19T10:17:02.809Z,4.45
2023-05-19T10:19:31.259Z,3.13
2023-05-19T10:21:59.233Z,3.20
2023-05-19T10:24:27.778Z,4.18
2023-05-19T10:27:02.605Z,5.05
2023-05-19T10:29:34.632Z,4.70
2023-05-19T10:32:09.228Z,4.07
2023-05-19T10:35:02.207Z,2.55
2023-05-19T10:37:38.672Z,5.75
2023-05-19T10:40:12.223Z,3.33
2023-05-19T10:42:49.391Z,2.88
2023-05-19T10:45:21.151Z,2.97
2023-05-19T10:47:51.620Z,3.38
2023-05-19T10:50:21.365Z,2.92
2023-05-19T10:52:55.711Z,3.10
2023-05-19T10:55:48.804Z,3.20
2023-05-19T10:58:38.243Z,2.35
2023-05-19T11:01:10.037Z,4.22
2023-05-19T11:03:48.794Z,3.30
2023-05-19T11:06:22.658Z,4.90
2023-05-19T11:08:55.561Z,3.90
2023-05-19T11:11:23.847Z,4.10
2023-05-19T11:16:28.420Z,2.63
2023-05-19T11:18:57.501Z,3.72
2023-05-19T11:21:25.793Z,3.78
2023-05-19T11:23:54.005Z,2.55
2023-05-19T11:29:11.968Z,2.80
2023-05-19T11:31:41.476Z,3.60
2023-05-19T11:34:10.101Z,3.05
2023-05-19T11:36:40.080Z,3.67
2023-05-19T11:39:10.623Z,3.47
2023-05-19T11:41:40.668Z,3.35
2023-05-19T11:44:12.886Z,2.53
2023-05-19T11:46:41.045Z,2.97
2023-05-19T11:49:09.238Z,2.60
2023-05-19T11:51:38.424Z,4.63
2023-05-19T11:54:06.659Z,3.85
2023-05-19T11:56:35.922Z,3.75
2023-05-19T11:59:03.982Z,4.10
2023-05-19T12:01:35.262Z,5.35
2023-05-19T12:04:03.361Z,3.22
2023-05-19T12:06:31.899Z,4.15
2023-05-19T12:09:00.078Z,5.18
2023-05-19T12:11:29.581Z,5.35
2023-05-19T12:14:00.178Z,4.65
2023-05-19T12:16:35.947Z,2.60
2023-05-19T12:19:06.817Z,5.22
2023-05-19T12:21:34.994Z,5.13
2023-05-19T12:24:03.445Z,3.60
2023-05-19T12:26:31.613Z,4.18
2023-05-19T12:29:00.059Z,3.60
2023-05-19T12:31:28.112Z,5.25
2023-05-19T12:33:57.658Z,5.35
2023-05-19T12:36:27.229Z,4.97
2023-05-19T12:38:56.066Z,4.20
2023-05-19T12:41:27.406Z,3.13
2023-05-19T12:43:56.089Z,5.22
2023-05-19T12:46:24.189Z,3.28
2023-05-19T12:48:52.313Z,4.47
2023-05-19T12:51:22.197Z,3.33
2023-05-19T12:53:51.687Z,5.63
2023-05-19T12:56:19.809Z,3.72
2023-05-19T12:58:47.839Z,3.03
2023-05-19T13:01:20.086Z,4.03
2023-05-19T13:03:48.659Z,5.57
2023-05-19T13:06:16.876Z,6.97
2023-05-19T13:08:48.509Z,5.45
2023-05-19T13:11:16.629Z,7.72
2023-05-19T13:16:13.619Z,3.95
2023-05-19T13:18:44.284Z,3.75
2023-05-19T13:21:12.351Z,4.03
2023-05-19T13:23:40.387Z,5.20
2023-05-19T13:26:11.697Z,3.88
2023-05-19T13:28:39.687Z,4.97
2023-05-19T13:31:07.788Z,4.22
2023-05-19T13:36:03.603Z,4.15
2023-05-19T13:38:31.728Z,4.82
2023-05-19T13:40:59.832Z,3.50
2023-05-19T13:43:29.422Z,5.03
2023-05-19T13:45:57.701Z,6.15
2023-05-19T13:50:55.622Z,3.95
2023-05-19T13:53:23.655Z,3.58
2023-05-19T13:58:21.062Z,6.07
2023-05-19T14:00:54.663Z,4.28
2023-05-19T14:03:22.824Z,4.32
2023-05-19T14:08:18.872Z,3.40
2023-05-19T14:13:31.018Z,5.93
2023-05-19T14:16:01.366Z,4.95
2023-05-19T14:18:29.421Z,3.97
2023-05-19T14:23:25.275Z,4.50
2023-05-19T14:25:53.399Z,4.60
2023-05-19T14:28:21.414Z,3.95
2023-05-19T14:30:49.957Z,3.92
2023-05-19T14:33:20.586Z,3.10
2023-05-19T14:35:48.612Z,4.63
2023-05-19T14:38:18.742Z,4.07
2023-05-19T14:40:48.486Z,4.55
2023-05-19T14:43:16.571Z,5.45
2023-05-19T14:45:45.199Z,3.58
2023-05-19T14:48:13.420Z,3.92
2023-05-19T14:50:42.914Z,4.78
2023-05-19T14:53:11.367Z,4.13
2023-05-19T14:55:39.314Z,3.75
2023-05-19T14:58:15.940Z,3.95
2023-05-19T15:00:54.651Z,3.58
2023-05-19T15:03:23.318Z,4.07
2023-05-19T15:05:52.739Z,3.88
2023-05-19T15:08:21.041Z,4.90
2023-05-19T15:10:49.965Z,4.53
2023-05-19T15:13:18.967Z,3.45
2023-05-19T15:15:47.315Z,5.13
2023-05-19T15:18:17.875Z,3.65
2023-05-19T15:20:46.617Z,4.55
2023-05-19T15:23:16.023Z,8.15
2023-05-19T15:25:51.517Z,5.40
2023-05-19T15:28:20.637Z,4.40
2023-05-19T15:30:48.619Z,4.35
2023-05-19T15:33:16.810Z,3.53
2023-05-19T15:35:44.897Z,5.93
2023-05-19T15:38:13.137Z,4.10
2023-05-19T15:40:43.922Z,5.13
2023-05-19T15:43:11.945Z,5.30
2023-05-19T15:45:39.921Z,4.97
2023-05-19T15:48:08.583Z,5.93
2023-05-19T15:50:37.059Z,5.53
2023-05-19T15:53:06.957Z,4.20
2023-05-19T15:55:35.010Z,5.50
2023-05-19T15:58:04.389Z,6.13
2023-05-19T16:00:32.824Z,4.55
2023-05-19T16:03:01.299Z,8.88
2023-05-19T16:05:29.471Z,4.18
2023-05-19T16:07:57.548Z,5.43
2023-05-19T16:10:25.537Z,5.32
2023-05-19T16:12:53.859Z,4.47
2023-05-19T16:15:23.312Z,6.50
2023-05-19T16:17:51.330Z,4.68
2023-05-19T16:20:20.284Z,3.30
2023-05-19T16:22:48.337Z,5.10
2023-05-19T16:25:16.452Z,5.10
2023-05-19T16:27:44.499Z,4.05
2023-05-19T16:32:42.190Z,4.22
2023-05-19T16:35:10.972Z,4.55
2023-05-19T16:37:39.215Z,5.30
2023-05-19T16:40:08.442Z,4.05
2023-05-19T16:42:36.390Z,4.40
2023-05-19T16:45:04.872Z,5.45
2023-05-19T16:47:33.129Z,4.93
2023-05-19T16:50:02.588Z,4.68
2023-05-19T16:52:30.677Z,5.35
2023-05-19T16:54:58.688Z,4.32
2023-05-19T16:57:26.689Z,4.50
2023-05-19T16:59:54.706Z,4.05
2023-05-19T17:02:22.834Z,5.38
2023-05-19T17:07:20.053Z,4.35
2023-05-19T17:09:48.286Z,4.40
2023-05-19T17:14:44.314Z,5.30
2023-05-19T17:19:40.199Z,5.80
2023-05-19T17:22:10.561Z,3.63
2023-05-19T17:24:39.985Z,4.68
2023-05-19T17:27:08.460Z,5.60
2023-05-19T17:29:36.970Z,4.47
2023-05-19T17:32:05.491Z,4.15
2023-05-19T17:34:33.596Z,5.50
2023-05-19T17:37:01.644Z,4.85
2023-05-19T17:39:29.691Z,3.90
2023-05-19T17:41:59.090Z,3.88
2023-05-19T17:44:27.220Z,3.85
2023-05-19T17:46:55.448Z,4.57
2023-05-19T17:51:54.600Z,4.10
2023-05-19T17:54:23.269Z,4.72
2023-05-19T17:56:52.606Z,4.43
2023-05-19T17:59:22.652Z,4.05
2023-05-19T18:01:51.479Z,5.68
2023-05-19T18:04:20.383Z,4.45
2023-05-19T18:06:52.033Z,6.32
2023-05-19T18:09:31.520Z,5.28
2023-05-19T18:12:02.216Z,3.75
2023-05-19T18:14:31.805Z,5.03
2023-05-19T18:16:59.878Z,5.10
2023-05-19T18:19:27.973Z,4.20
2023-05-19T18:21:56.228Z,5.15
2023-05-19T18:26:52.013Z,5.72
2023-05-19T18:29:20.033Z,4.97
2023-05-19T18:31:49.436Z,5.18
2023-05-19T18:34:17.455Z,5.43
2023-05-19T18:36:45.525Z,4.78
2023-05-19T18:39:13.509Z,5.75
2023-05-19T18:41:42.840Z,4.03
2023-05-19T18:44:11.622Z,4.95
2023-05-19T18:46:39.622Z,4.20
2023-05-19T18:49:11.556Z,5.43
2023-05-19T18:51:39.855Z,6.00
2023-05-19T18:54:08.445Z,4.18
2023-05-19T18:56:36.596Z,5.53
2023-05-19T18:59:04.615Z,4.68
2023-05-19T19:01:32.671Z,3.97
2023-05-19T19:04:01.100Z,4.45
2023-05-19T19:06:31.401Z,3.75
2023-05-19T19:08:59.401Z,6.88
2023-05-19T19:11:27.536Z,4.65
2023-05-19T19:13:56.810Z,5.25
2023-05-19T19:16:24.967Z,4.32
2023-05-19T19:18:53.110Z,5.07
2023-05-19T19:21:24.022Z,3.85
2023-05-19T19:23:54.783Z,6.15
2023-05-19T19:26:25.100Z,5.45
2023-05-19T19:28:53.063Z,5.82
2023-05-19T19:31:21.290Z,7.35
2023-05-19T19:33:49.309Z,4.80
2023-05-19T19:36:17.552Z,4.90
2023-05-19T19:38:45.588Z,5.20
2023-05-19T19:41:14.981Z,5.00
2023-05-19T19:43:42.936Z,6.55
2023-05-19T19:46:11.249Z,4.63
2023-05-19T19:48:39.369Z,5.72
2023-05-19T19:51:07.407Z,3.88
2023-05-19T19:53:35.384Z,4.70
2023-05-19T19:56:05.243Z,4.57
2023-05-19T19:58:34.925Z,4.57
2023-05-19T20:01:04.521Z,4.90
2023-05-19T20:03:33.623Z,4.65
2023-05-19T20:06:01.738Z,4.60
2023-05-19T20:08:29.754Z,5.40
2023-05-19T20:10:57.757Z,4.55
2023-05-19T20:13:25.766Z,4.38
2023-05-19T20:15:55.244Z,5.45
2023-05-19T20:18:23.260Z,4.43
2023-05-19T20:20:51.286Z,5.72
2023-05-19T20:23:19.246Z,5.40
2023-05-19T20:25:54.772Z,4.97
2023-05-19T20:28:30.914Z,4.30
2023-05-19T20:31:00.351Z,4.20
2023-05-19T20:33:31.911Z,5.47
2023-05-19T20:35:59.853Z,4.88
2023-05-19T20:38:27.895Z,5.05
2023-05-19T20:40:55.959Z,4.30
2023-05-19T20:43:23.963Z,7.95
2023-05-19T20:45:52.475Z,4.55
2023-05-19T20:48:22.054Z,4.55
2023-05-19T20:50:50.081Z,5.15
2023-05-19T20:53:21.554Z,6.25
2023-05-19T20:55:49.875Z,6.57
2023-05-19T20:58:17.898Z,5.75
2023-05-19T21:00:46.158Z,4.82
2023-05-19T21:03:14.224Z,5.15
2023-05-19T21:05:43.864Z,4.47
2023-05-19T21:08:17.763Z,4.55
2023-05-19T21:10:45.874Z,5.07
2023-05-19T21:13:13.940Z,5.30
2023-05-19T21:15:41.959Z,4.72
2023-05-19T21:18:11.471Z,5.28
2023-05-19T21:20:39.648Z,4.70
2023-05-19T21:23:09.001Z,4.82
2023-05-19T21:25:37.037Z,7.03
2023-05-19T21:28:06.068Z,5.15
2023-05-19T21:30:34.303Z,5.55
2023-05-19T21:33:02.614Z,6.03
2023-05-19T21:35:30.647Z,5.22
2023-05-19T21:38:03.899Z,5.70
2023-05-19T21:40:38.781Z,5.38
2023-05-19T21:43:07.079Z,4.68
2023-05-19T21:45:35.080Z,7.05
2023-05-19T21:48:03.135Z,8.40
2023-05-19T21:50:31.369Z,6.57
2023-05-19T21:52:59.484Z,6.82
2023-05-19T21:55:27.532Z,7.15
2023-05-19T21:57:56.866Z,6.75
2023-05-19T22:00:25.826Z,5.30
2023-05-19T22:02:53.927Z,4.25
2023-05-19T22:05:22.039Z,5.68
2023-05-19T22:07:50.041Z,5.25
2023-05-19T22:10:18.099Z,5.05
2023-05-19T22:12:46.066Z,5.93
2023-05-19T22:15:15.996Z,5.53
2023-05-19T22:17:44.275Z,6.43
2023-05-19T22:20:13.171Z,4.38
2023-05-19T22:22:41.398Z,6.72
2023-05-19T22:25:09.867Z,5.47
2023-05-19T22:27:37.861Z,5.45
2023-05-19T22:30:07.275Z,4.40
2023-05-19T22:32:37.022Z,4.60
2023-05-19T22:35:06.640Z,4.80
2023-05-19T22:37:34.719Z,4.53
2023-05-19T22:40:02.747Z,5.20
2023-05-19T22:42:30.705Z,4.90
2023-05-19T22:44:58.758Z,4.57
2023-05-19T22:47:26.943Z,4.57
2023-05-19T22:49:57.113Z,6.10
2023-05-19T22:52:25.371Z,4.45
2023-05-19T22:54:53.541Z,5.05
2023-05-19T22:57:21.536Z,4.32
2023-05-19T22:59:49.526Z,4.82
2023-05-19T23:02:17.550Z,4.10
2023-05-19T23:04:45.617Z,6.13
2023-05-19T23:07:15.162Z,4.25
2023-05-19T23:09:43.160Z,6.50
2023-05-19T23:12:11.136Z,5.97
2023-05-19T23:14:39.140Z,5.45
2023-05-19T23:17:07.434Z,4.88
2023-05-19T23:19:36.589Z,5.05
2023-05-19T23:22:04.579Z,4.63
2023-05-19T23:24:33.948Z,4.43
2023-05-19T23:27:02.091Z,5.25
2023-05-19T23:29:30.119Z,3.80
2023-05-19T23:31:58.095Z,5.00
2023-05-19T23:34:26.092Z,4.68
2023-05-19T23:36:54.078Z,4.20
2023-05-19T23:39:25.187Z,4.03
2023-05-19T23:41:54.536Z,4.13
2023-05-19T23:44:22.536Z,6.35
2023-05-19T23:46:50.682Z,4.65
2023-05-19T23:49:19.799Z,4.43
2023-05-19T23:51:47.772Z,5.35
2023-05-19T23:54:15.828Z,4.80
2023-05-19T23:56:44.066Z,4.57
2023-05-19T23:59:13.416Z,4.43
